Time,TemperatureF,DewpointF,PressureIn,WindDirection,WindDirectionDegrees,WindSpeedMPH,WindSpeedGustMPH,Humidity,HourlyPrecipIn,Conditions,Clouds,dailyrainin,SoftwareType,DateUTC
2013-01-10 00:03:00,52.4,51.0,30.47,WSW,257,0.0,0.0,94,0.00,,,0.00,weatherlink.com 1.10,2013-01-10 05:03:00,
2013-01-10 00:18:00,52.6,51.0,30.47,SE,130,0.0,0.0,95,0.00,,,0.00,weatherlink.com 1.10,2013-01-10 05:18:00,
2013-01-10 00:49:00,51.7,50.0,30.46,WSW,257,0.0,0.0,95,0.00,,,0.00,weatherlink.com 1.10,2013-01-10 05:49:00,
2013-01-10 01:04:00,50.8,50.0,30.46,West,280,0.0,0.0,95,0.00,,,0.00,weatherlink.com 1.10,2013-01-10 06:04:00,
2013-01-10 01:19:00,50.9,50.0,30.46,WNW,288,0.0,0.0,96,0.00,,,0.00,weatherlink.com 1.10,2013-01-10 06:19:00,
2013-01-10 01:34:00,50.4,49.0,30.46,WSW,243,0.0,0.0,96,0.00,,,0.00,weatherlink.com 1.10,2013-01-10 06:34:00,
2013-01-10 01:49:00,50.1,49.0,30.46,WSW,242,0.0,0.0,96,0.00,,,0.00,weatherlink.com 1.10,2013-01-10 06:49:00,
2013-01-10 02:04:00,50.0,49.0,30.46,WSW,240,0.0,0.0,96,0.00,,,0.00,weatherlink.com 1.10,2013-01-10 07:04:00,
2013-01-10 02:19:00,49.7,49.0,30.47,West,266,0.0,0.0,97,0.00,,,0.00,weatherlink.com 1.10,2013-01-10 07:19:00,
2013-01-10 02:34:00,49.7,49.0,30.47,SE,138,0.0,0.0,97,0.00,,,0.00,weatherlink.com 1.10,2013-01-10 07:34:00,
2013-01-10 02:49:00,49.6,49.0,30.46,SE,138,0.0,0.0,97,0.00,,,0.00,weatherlink.com 1.10,2013-01-10 07:49:00,
2013-01-10 03:04:00,49.3,49.0,30.46,SE,138,0.0,0.0,97,0.00,,,0.00,weatherlink.com 1.10,2013-01-10 08:04:00,
2013-01-10 03:19:00,49.4,49.0,30.46,SE,139,0.0,0.0,97,0.00,,,0.00,weatherlink.com 1.10,2013-01-10 08:19:00,
2013-01-10 03:34:00,49.5,49.0,30.45,SE,138,0.0,0.0,97,0.00,,,0.00,weatherlink.com 1.10,2013-01-10 08:34:00,
2013-01-10 03:49:00,49.0,48.0,30.45,SE,138,0.0,0.0,97,0.00,,,0.00,weatherlink.com 1.10,2013-01-10 08:49:00,
2013-01-10 04:04:00,48.2,47.0,30.45,SE,139,0.0,0.0,97,0.00,,,0.00,weatherlink.com 1.10,2013-01-10 09:04:00,
2013-01-10 04:19:00,47.2,46.0,30.45,SW,214,0.0,0.0,97,0.00,,,0.00,weatherlink.com 1.10,2013-01-10 09:19:00,
2013-01-10 04:34:00,46.6,46.0,30.45,WSW,250,0.0,0.0,97,0.00,,,0.00,weatherlink.com 1.10,2013-01-10 09:34:00,
2013-01-10 04:49:00,46.3,46.0,30.45,WSW,252,0.0,0.0,97,0.00,,,0.00,weatherlink.com 1.10,2013-01-10 09:49:00,
2013-01-10 05:04:00,46.2,45.0,30.45,WSW,252,0.0,0.0,97,0.00,,,0.00,weatherlink.com 1.10,2013-01-10 10:04:00,
2013-01-10 05:19:00,46.0,46.0,30.45,WSW,253,0.0,0.0,98,0.00,,,0.00,weatherlink.com 1.10,2013-01-10 10:19:00,
2013-01-10 05:34:00,45.7,45.0,30.45,WSW,252,0.0,0.0,97,0.00,,,0.00,weatherlink.com 1.10,2013-01-10 10:34:00,
2013-01-10 05:49:00,46.8,46.0,30.46,WSW,252,0.0,0.0,98,0.00,,,0.00,weatherlink.com 1.10,2013-01-10 10:49:00,
2013-01-10 06:04:00,48.8,48.0,30.46,East,99,0.0,0.0,98,0.00,,,0.00,weatherlink.com 1.10,2013-01-10 11:04:00,
2013-01-10 06:19:00,46.0,45.0,30.46,East,99,0.0,0.0,97,0.00,,,0.00,weatherlink.com 1.10,2013-01-10 11:19:00,
2013-01-10 06:34:00,45.6,45.0,30.46,East,99,0.0,0.0,97,0.00,,,0.00,weatherlink.com 1.10,2013-01-10 11:34:00,
2013-01-10 06:49:00,45.7,45.0,30.47,East,98,0.0,0.0,98,0.00,,,0.00,weatherlink.com 1.10,2013-01-10 11:49:00,
2013-01-10 07:04:00,45.5,45.0,30.48,East,99,0.0,0.0,98,0.00,,,0.00,weatherlink.com 1.10,2013-01-10 12:04:00,
2013-01-10 07:19:00,45.2,45.0,30.48,East,98,0.0,0.0,98,0.00,,,0.00,weatherlink.com 1.10,2013-01-10 12:19:00,
2013-01-10 07:34:00,47.9,47.0,30.48,ENE,63,0.0,0.0,98,0.00,,,0.00,weatherlink.com 1.10,2013-01-10 12:34:00,
2013-01-10 07:49:00,47.6,47.0,30.49,ENE,60,0.0,0.0,98,0.00,,,0.00,weatherlink.com 1.10,2013-01-10 12:49:00,
2013-01-10 08:04:00,48.2,48.0,30.50,ENE,65,0.0,0.0,98,0.00,,,0.00,weatherlink.com 1.10,2013-01-10 13:04:00,
2013-01-10 08:19:00,47.7,47.0,30.50,ENE,65,0.0,0.0,98,0.00,,,0.00,weatherlink.com 1.10,2013-01-10 13:19:00,
2013-01-10 08:34:00,48.0,48.0,30.51,ENE,65,0.0,0.0,98,0.00,,,0.00,weatherlink.com 1.10,2013-01-10 13:34:00,
2013-01-10 08:49:00,49.1,49.0,30.51,ENE,65,0.0,0.0,98,0.00,,,0.00,weatherlink.com 1.10,2013-01-10 13:49:00,
2013-01-10 09:08:00,48.8,48.0,30.52,NE,51,0.0,0.0,98,0.00,,,0.00,weatherlink.com 1.10,2013-01-10 14:08:00,
2013-01-10 09:19:00,49.4,49.0,30.52,North,11,0.0,0.0,98,0.00,,,0.00,weatherlink.com 1.10,2013-01-10 14:19:00,
2013-01-10 09:34:00,49.0,48.0,30.52,WNW,288,0.0,0.0,97,0.00,,,0.00,weatherlink.com 1.10,2013-01-10 14:34:00,
2013-01-10 10:04:00,53.2,53.0,30.52,NNE,29,5.0,8.0,98,0.00,,,0.00,weatherlink.com 1.10,2013-01-10 15:04:00,
2013-01-10 10:20:00,54.3,52.0,30.52,NNE,32,4.0,7.0,91,0.00,,,0.00,weatherlink.com 1.10,2013-01-10 15:20:00,
2013-01-10 10:35:00,55.0,52.0,30.52,NNE,19,2.0,7.0,89,0.00,,,0.00,weatherlink.com 1.10,2013-01-10 15:35:00,
2013-01-10 10:50:00,55.8,52.0,30.52,NNE,20,3.0,8.0,87,0.00,,,0.00,weatherlink.com 1.10,2013-01-10 15:50:00,
2013-01-10 11:05:00,56.8,52.0,30.52,North,358,5.0,7.0,84,0.00,,,0.00,weatherlink.com 1.10,2013-01-10 16:05:00,
2013-01-10 11:20:00,57.4,52.0,30.51,NNE,32,5.0,8.0,81,0.00,,,0.00,weatherlink.com 1.10,2013-01-10 16:20:00,
2013-01-10 11:35:00,58.7,52.0,30.50,North,354,8.0,10.0,79,0.00,,,0.00,weatherlink.com 1.10,2013-01-10 16:35:00,
2013-01-10 11:50:00,59.8,52.0,30.50,NE,40,3.0,8.0,74,0.00,,,0.00,weatherlink.com 1.10,2013-01-10 16:50:00,
2013-01-10 12:05:00,60.2,52.0,30.49,North,8,7.0,8.0,73,0.00,,,0.00,weatherlink.com 1.10,2013-01-10 17:05:00,
2013-01-10 12:20:00,60.9,52.0,30.48,ENE,60,4.0,9.0,72,0.00,,,0.00,weatherlink.com 1.10,2013-01-10 17:20:00,
2013-01-10 12:35:00,62.4,52.0,30.47,NNW,337,0.0,7.0,69,0.00,,,0.00,weatherlink.com 1.10,2013-01-10 17:35:00,
2013-01-10 12:50:00,63.3,52.0,30.46,ENE,63,3.0,6.0,67,0.00,,,0.00,weatherlink.com 1.10,2013-01-10 17:50:00,
2013-01-10 13:05:00,64.4,52.0,30.45,NE,43,4.0,6.0,65,0.00,,,0.00,weatherlink.com 1.10,2013-01-10 18:05:00,
2013-01-10 13:20:00,64.5,52.0,30.44,NE,54,2.0,7.0,65,0.00,,,0.00,weatherlink.com 1.10,2013-01-10 18:20:00,
2013-01-10 13:35:00,65.1,52.0,30.44,ENE,77,0.0,7.0,63,0.00,,,0.00,weatherlink.com 1.10,2013-01-10 18:35:00,
2013-01-10 13:50:00,65.6,53.0,30.44,ENE,65,1.0,7.0,63,0.00,,,0.00,weatherlink.com 1.10,2013-01-10 18:50:00,
2013-01-10 14:05:00,66.2,52.0,30.43,NNE,32,3.0,6.0,61,0.00,,,0.00,weatherlink.com 1.10,2013-01-10 19:05:00,
2013-01-10 14:20:00,65.6,52.0,30.42,NE,34,5.0,8.0,62,0.00,,,0.00,weatherlink.com 1.10,2013-01-10 19:20:00,
2013-01-10 14:35:00,65.9,52.0,30.43,NE,44,8.0,8.0,61,0.00,,,0.00,weatherlink.com 1.10,2013-01-10 19:35:00,
2013-01-10 14:50:00,66.2,52.0,30.42,NE,51,6.0,9.0,61,0.00,,,0.00,weatherlink.com 1.10,2013-01-10 19:50:00,
2013-01-10 15:05:00,66.3,52.0,30.42,NE,36,5.0,9.0,60,0.00,,,0.00,weatherlink.com 1.10,2013-01-10 20:05:00,
2013-01-10 15:20:00,66.2,52.0,30.42,NE,49,5.0,8.0,60,0.00,,,0.00,weatherlink.com 1.10,2013-01-10 20:20:00,
2013-01-10 15:35:00,66.5,52.0,30.42,NE,39,5.0,7.0,60,0.00,,,0.00,weatherlink.com 1.10,2013-01-10 20:35:00,
2013-01-10 15:50:00,66.8,52.0,30.42,NE,41,7.0,8.0,59,0.00,,,0.00,weatherlink.com 1.10,2013-01-10 20:50:00,
2013-01-10 16:05:00,66.8,52.0,30.42,NE,46,5.0,9.0,59,0.00,,,0.00,weatherlink.com 1.10,2013-01-10 21:05:00,
2013-01-10 16:21:00,67.0,52.0,30.42,NE,39,6.0,7.0,59,0.00,,,0.00,weatherlink.com 1.10,2013-01-10 21:21:00,
2013-01-10 16:36:00,67.0,52.0,30.42,NNE,32,5.0,7.0,59,0.00,,,0.00,weatherlink.com 1.10,2013-01-10 21:36:00,
2013-01-10 17:06:00,66.4,52.0,30.42,NE,37,3.0,8.0,60,0.00,,,0.00,weatherlink.com 1.10,2013-01-10 22:06:00,
2013-01-10 17:21:00,65.7,52.0,30.42,NE,44,3.0,4.0,61,0.00,,,0.00,weatherlink.com 1.10,2013-01-10 22:21:00,
2013-01-10 17:36:00,64.9,52.0,30.43,NNE,33,0.0,1.0,63,0.00,,,0.00,weatherlink.com 1.10,2013-01-10 22:36:00,
2013-01-10 17:51:00,63.9,52.0,30.43,NE,43,0.0,1.0,65,0.00,,,0.00,weatherlink.com 1.10,2013-01-10 22:51:00,
2013-01-10 18:06:00,63.5,52.0,30.43,ENE,60,1.0,2.0,66,0.00,,,0.00,weatherlink.com 1.10,2013-01-10 23:06:00,
2013-01-10 18:21:00,63.4,52.0,30.43,ENE,60,0.0,1.0,66,0.00,,,0.00,weatherlink.com 1.10,2013-01-10 23:21:00,
2013-01-10 18:36:00,63.2,52.0,30.42,ENE,60,2.0,3.0,67,0.00,,,0.00,weatherlink.com 1.10,2013-01-10 23:36:00,
2013-01-10 18:51:00,62.6,52.0,30.42,NE,44,3.0,5.0,68,0.00,,,0.00,weatherlink.com 1.10,2013-01-10 23:51:00,
2013-01-10 19:21:00,62.3,51.0,30.42,NE,56,6.0,8.0,67,0.00,,,0.00,weatherlink.com 1.10,2013-01-11 00:21:00,
2013-01-10 19:36:00,62.0,50.0,30.42,NE,40,5.0,6.0,66,0.00,,,0.00,weatherlink.com 1.10,2013-01-11 00:36:00,
2013-01-10 19:51:00,61.7,50.0,30.42,NE,44,4.0,7.0,65,0.00,,,0.00,weatherlink.com 1.10,2013-01-11 00:51:00,
2013-01-10 20:06:00,61.5,49.0,30.42,NE,46,4.0,7.0,64,0.00,,,0.00,weatherlink.com 1.10,2013-01-11 01:06:00,
2013-01-10 20:21:00,61.4,49.0,30.42,NE,53,3.0,7.0,64,0.00,,,0.00,weatherlink.com 1.10,2013-01-11 01:21:00,
2013-01-10 20:36:00,61.1,48.0,30.42,NE,53,4.0,6.0,63,0.00,,,0.00,weatherlink.com 1.10,2013-01-11 01:36:00,
2013-01-10 20:51:00,60.5,48.0,30.41,NE,40,4.0,7.0,63,0.00,,,0.00,weatherlink.com 1.10,2013-01-11 01:51:00,
2013-01-10 21:06:00,59.9,47.0,30.41,NNE,26,6.0,6.0,63,0.00,,,0.00,weatherlink.com 1.10,2013-01-11 02:06:00,
2013-01-10 21:21:00,59.7,46.0,30.41,North,9,6.0,8.0,62,0.00,,,0.00,weatherlink.com 1.10,2013-01-11 02:21:00,
2013-01-10 21:37:00,59.3,46.0,30.41,ENE,60,5.0,6.0,61,0.00,,,0.00,weatherlink.com 1.10,2013-01-11 02:37:00,
2013-01-10 21:51:00,59.0,45.0,30.41,NNE,20,5.0,6.0,61,0.00,,,0.00,weatherlink.com 1.10,2013-01-11 02:51:00,
2013-01-10 22:06:00,58.5,45.0,30.41,NE,41,6.0,8.0,61,0.00,,,0.00,weatherlink.com 1.10,2013-01-11 03:06:00,
2013-01-10 22:21:00,58.1,45.0,30.40,NE,44,4.0,7.0,61,0.00,,,0.00,weatherlink.com 1.10,2013-01-11 03:21:00,
2013-01-10 22:36:00,57.8,44.0,30.40,NE,40,4.0,8.0,61,0.00,,,0.00,weatherlink.com 1.10,2013-01-11 03:36:00,
2013-01-10 22:51:00,57.6,44.0,30.39,NE,44,7.0,7.0,60,0.00,,,0.00,weatherlink.com 1.10,2013-01-11 03:51:00,
2013-01-10 23:06:00,57.4,43.0,30.38,NE,43,5.0,8.0,60,0.00,,,0.00,weatherlink.com 1.10,2013-01-11 04:06:00,
2013-01-10 23:21:00,57.2,43.0,30.39,NE,41,3.0,7.0,60,0.00,,,0.00,weatherlink.com 1.10,2013-01-11 04:21:00,
2013-01-10 23:36:00,56.7,43.0,30.39,NE,39,3.0,5.0,61,0.00,,,0.00,weatherlink.com 1.10,2013-01-11 04:36:00,
2013-01-10 23:51:00,55.1,45.0,30.39,East,101,0.0,4.0,70,0.01,,,0.01,weatherlink.com 1.10,2013-01-11 04:51:00,